sensor_id;sensor_type;location;lat;lon;timestamp;P1;durP1;ratioP1;P2;durP2;ratioP2
8102;SDS011;4094;49.948;11.574;2023-04-12T00:01:26;9.43;;;8.83;;
8102;SDS011;4094;49.948;11.574;2023-04-12T00:03:56;9.40;;;8.80;;
8102;SDS011;4094;49.948;11.574;2023-04-12T00:06:26;9.30;;;8.70;;
8102;SDS011;4094;49.948;11.574;2023-04-12T00:08:58;9.80;;;9.10;;
8102;SDS011;4094;49.948;11.574;2023-04-12T00:11:29;9.60;;;8.83;;
8102;SDS011;4094;49.948;11.574;2023-04-12T00:13:59;10.00;;;9.30;;
8102;SDS011;4094;49.948;11.574;2023-04-12T00:16:29;10.20;;;9.30;;
8102;SDS011;4094;49.948;11.574;2023-04-12T00:18:59;9.70;;;9.07;;
8102;SDS011;4094;49.948;11.574;2023-04-12T00:21:30;10.17;;;9.47;;
8102;SDS011;4094;49.948;11.574;2023-04-12T00:23:59;9.43;;;8.70;;
8102;SDS011;4094;49.948;11.574;2023-04-12T00:26:28;9.40;;;8.80;;
8102;SDS011;4094;49.948;11.574;2023-04-12T00:28:58;9.33;;;8.70;;
8102;SDS011;4094;49.948;11.574;2023-04-12T00:31:28;9.60;;;8.90;;
8102;SDS011;4094;49.948;11.574;2023-04-12T00:34:01;9.60;;;9.00;;
8102;SDS011;4094;49.948;11.574;2023-04-12T00:36:31;9.97;;;9.10;;
8102;SDS011;4094;49.948;11.574;2023-04-12T00:39:00;9.90;;;9.17;;
8102;SDS011;4094;49.948;11.574;2023-04-12T00:41:29;9.70;;;9.10;;
8102;SDS011;4094;49.948;11.574;2023-04-12T00:43:58;9.57;;;8.87;;
8102;SDS011;4094;49.948;11.574;2023-04-12T00:46:27;9.40;;;8.73;;
8102;SDS011;4094;49.948;11.574;2023-04-12T00:48:58;9.63;;;8.93;;
8102;SDS011;4094;49.948;11.574;2023-04-12T00:51:28;9.63;;;8.93;;
8102;SDS011;4094;49.948;11.574;2023-04-12T00:53:59;9.73;;;9.13;;
8102;SDS011;4094;49.948;11.574;2023-04-12T00:56:29;9.77;;;9.13;;
8102;SDS011;4094;49.948;11.574;2023-04-12T00:58:59;10.20;;;9.50;;
8102;SDS011;4094;49.948;11.574;2023-04-12T01:01:28;9.40;;;8.80;;
8102;SDS011;4094;49.948;11.574;2023-04-12T01:03:59;9.33;;;8.83;;
8102;SDS011;4094;49.948;11.574;2023-04-12T01:06:34;9.83;;;9.13;;
8102;SDS011;4094;49.948;11.574;2023-04-12T01:09:13;9.40;;;8.80;;
8102;SDS011;4094;49.948;11.574;2023-04-12T01:11:50;9.77;;;9.07;;
8102;SDS011;4094;49.948;11.574;2023-04-12T01:14:28;9.63;;;8.97;;
8102;SDS011;4094;49.948;11.574;2023-04-12T01:17:06;9.40;;;8.60;;
8102;SDS011;4094;49.948;11.574;2023-04-12T01:19:46;9.67;;;8.87;;
8102;SDS011;4094;49.948;11.574;2023-04-12T01:22:35;9.03;;;8.53;;
8102;SDS011;4094;49.948;11.574;2023-04-12T01:25:20;9.73;;;9.03;;
8102;SDS011;4094;49.948;11.574;2023-04-12T01:28:07;9.27;;;8.77;;
8102;SDS011;4094;49.948;11.574;2023-04-12T01:30:39;10.03;;;9.27;;
8102;SDS011;4094;49.948;11.574;2023-04-12T01:33:10;9.57;;;8.80;;
8102;SDS011;4094;49.948;11.574;2023-04-12T01:35:40;9.47;;;8.87;;
8102;SDS011;4094;49.948;11.574;2023-04-12T01:38:11;9.77;;;8.87;;
8102;SDS011;4094;49.948;11.574;2023-04-12T01:40:41;9.50;;;8.70;;
8102;SDS011;4094;49.948;11.574;2023-04-12T01:43:12;9.67;;;8.97;;
8102;SDS011;4094;49.948;11.574;2023-04-12T01:45:42;9.53;;;8.93;;
8102;SDS011;4094;49.948;11.574;2023-04-12T01:48:12;9.43;;;8.73;;
8102;SDS011;4094;49.948;11.574;2023-04-12T01:50:43;9.50;;;8.90;;
8102;SDS011;4094;49.948;11.574;2023-04-12T01:53:25;9.23;;;8.63;;
8102;SDS011;4094;49.948;11.574;2023-04-12T01:56:01;9.23;;;8.63;;
8102;SDS011;4094;49.948;11.574;2023-04-12T01:58:37;9.67;;;9.07;;
8102;SDS011;4094;49.948;11.574;2023-04-12T02:01:11;9.77;;;9.13;;
8102;SDS011;4094;49.948;11.574;2023-04-12T02:03:42;9.27;;;8.60;;
8102;SDS011;4094;49.948;11.574;2023-04-12T02:06:11;9.53;;;8.93;;
8102;SDS011;4094;49.948;11.574;2023-04-12T02:08:41;9.70;;;8.90;;
8102;SDS011;4094;49.948;11.574;2023-04-12T02:11:11;10.03;;;9.43;;
8102;SDS011;4094;49.948;11.574;2023-04-12T02:13:45;9.40;;;8.87;;
8102;SDS011;4094;49.948;11.574;2023-04-12T02:16:15;9.67;;;8.97;;
8102;SDS011;4094;49.948;11.574;2023-04-12T02:18:47;10.00;;;9.10;;
8102;SDS011;4094;49.948;11.574;2023-04-12T02:21:16;9.50;;;8.80;;
8102;SDS011;4094;49.948;11.574;2023-04-12T02:23:46;9.67;;;9.07;;
8102;SDS011;4094;49.948;11.574;2023-04-12T02:26:15;9.43;;;8.83;;
8102;SDS011;4094;49.948;11.574;2023-04-12T02:28:46;9.63;;;8.93;;
8102;SDS011;4094;49.948;11.574;2023-04-12T02:31:15;9.67;;;8.97;;
8102;SDS011;4094;49.948;11.574;2023-04-12T02:33:47;9.57;;;8.97;;
8102;SDS011;4094;49.948;11.574;2023-04-12T02:36:17;9.60;;;9.00;;
8102;SDS011;4094;49.948;11.574;2023-04-12T02:38:47;9.27;;;8.67;;
8102;SDS011;4094;49.948;11.574;2023-04-12T02:41:19;9.70;;;8.90;;
8102;SDS011;4094;49.948;11.574;2023-04-12T02:43:50;9.43;;;8.93;;
8102;SDS011;4094;49.948;11.574;2023-04-12T02:46:21;9.80;;;9.03;;
8102;SDS011;4094;49.948;11.574;2023-04-12T02:48:56;9.90;;;9.20;;
8102;SDS011;4094;49.948;11.574;2023-04-12T02:51:39;9.80;;;9.17;;
8102;SDS011;4094;49.948;11.574;2023-04-12T02:54:09;9.20;;;8.70;;
8102;SDS011;4094;49.948;11.574;2023-04-12T02:56:51;9.50;;;8.90;;
8102;SDS011;4094;49.948;11.574;2023-04-12T02:59:41;9.40;;;8.90;;
8102;SDS011;4094;49.948;11.574;2023-04-12T03:02:33;9.80;;;9.17;;
8102;SDS011;4094;49.948;11.574;2023-04-12T03:05:06;9.90;;;9.10;;
8102;SDS011;4094;49.948;11.574;2023-04-12T03:07:40;9.80;;;9.10;;
8102;SDS011;4094;49.948;11.574;2023-04-12T03:10:10;10.00;;;9.40;;
8102;SDS011;4094;49.948;11.574;2023-04-12T03:12:44;9.77;;;9.07;;
8102;SDS011;4094;49.948;11.574;2023-04-12T03:15:17;9.97;;;9.10;;
8102;SDS011;4094;49.948;11.574;2023-04-12T03:17:51;9.90;;;9.30;;
8102;SDS011;4094;49.948;11.574;2023-04-12T03:20:24;9.73;;;9.10;;
8102;SDS011;4094;49.948;11.574;2023-04-12T03:23:02;10.20;;;9.50;;
8102;SDS011;4094;49.948;11.574;2023-04-12T03:25:34;10.47;;;9.67;;
8102;SDS011;4094;49.948;11.574;2023-04-12T03:28:23;9.67;;;9.07;;
8102;SDS011;4094;49.948;11.574;2023-04-12T03:30:55;10.03;;;9.20;;
8102;SDS011;4094;49.948;11.574;2023-04-12T03:33:31;10.00;;;9.40;;
8102;SDS011;4094;49.948;11.574;2023-04-12T03:36:03;9.93;;;9.23;;
8102;SDS011;4094;49.948;11.574;2023-04-12T03:38:35;10.27;;;9.53;;
8102;SDS011;4094;49.948;11.574;2023-04-12T03:41:07;10.67;;;9.80;;
8102;SDS011;4094;49.948;11.574;2023-04-12T03:43:37;10.20;;;9.60;;
8102;SDS011;4094;49.948;11.574;2023-04-12T03:46:17;10.37;;;9.77;;
8102;SDS011;4094;49.948;11.574;2023-04-12T03:48:54;10.03;;;9.43;;
8102;SDS011;4094;49.948;11.574;2023-04-12T03:51:24;9.80;;;9.30;;
8102;SDS011;4094;49.948;11.574;2023-04-12T03:54:01;10.43;;;9.63;;
8102;SDS011;4094;49.948;11.574;2023-04-12T03:56:40;10.23;;;9.67;;
8102;SDS011;4094;49.948;11.574;2023-04-12T03:59:19;9.97;;;9.37;;
8102;SDS011;4094;49.948;11.574;2023-04-12T04:01:51;10.23;;;9.53;;
8102;SDS011;4094;49.948;11.574;2023-04-12T04:04:21;10.00;;;9.30;;
8102;SDS011;4094;49.948;11.574;2023-04-12T04:06:54;10.00;;;9.40;;
8102;SDS011;4094;49.948;11.574;2023-04-12T04:09:26;10.43;;;9.83;;
8102;SDS011;4094;49.948;11.574;2023-04-12T04:11:55;10.17;;;9.47;;
8102;SDS011;4094;49.948;11.574;2023-04-12T04:14:25;10.10;;;9.40;;
8102;SDS011;4094;49.948;11.574;2023-04-12T04:16:56;10.03;;;9.43;;
8102;SDS011;4094;49.948;11.574;2023-04-12T04:19:25;10.30;;;9.60;;
8102;SDS011;4094;49.948;11.574;2023-04-12T04:21:55;10.43;;;9.73;;
8102;SDS011;4094;49.948;11.574;2023-04-12T04:24:26;10.37;;;9.47;;
8102;SDS011;4094;49.948;11.574;2023-04-12T04:26:59;10.87;;;10.00;;
8102;SDS011;4094;49.948;11.574;2023-04-12T04:29:29;10.93;;;10.13;;
8102;SDS011;4094;49.948;11.574;2023-04-12T04:32:02;10.27;;;9.60;;
8102;SDS011;4094;49.948;11.574;2023-04-12T04:34:32;10.43;;;9.70;;
8102;SDS011;4094;49.948;11.574;2023-04-12T04:37:09;10.57;;;9.87;;
8102;SDS011;4094;49.948;11.574;2023-04-12T04:39:41;10.13;;;9.43;;
8102;SDS011;4094;49.948;11.574;2023-04-12T04:42:11;9.90;;;9.30;;
8102;SDS011;4094;49.948;11.574;2023-04-12T04:44:54;10.40;;;9.60;;
8102;SDS011;4094;49.948;11.574;2023-04-12T04:47:35;10.60;;;9.90;;
8102;SDS011;4094;49.948;11.574;2023-04-12T04:50:05;11.07;;;10.20;;
8102;SDS011;4094;49.948;11.574;2023-04-12T04:52:35;10.60;;;9.90;;
8102;SDS011;4094;49.948;11.574;2023-04-12T04:55:09;10.50;;;9.83;;
8102;SDS011;4094;49.948;11.574;2023-04-12T04:57:44;10.50;;;9.80;;
8102;SDS011;4094;49.948;11.574;2023-04-12T05:00:14;11.10;;;10.40;;
8102;SDS011;4094;49.948;11.574;2023-04-12T05:02:52;10.27;;;9.63;;
8102;SDS011;4094;49.948;11.574;2023-04-12T05:05:24;10.87;;;10.07;;
8102;SDS011;4094;49.948;11.574;2023-04-12T05:08:07;10.90;;;10.13;;
8102;SDS011;4094;49.948;11.574;2023-04-12T05:10:37;10.90;;;10.20;;
8102;SDS011;4094;49.948;11.574;2023-04-12T05:13:06;10.60;;;9.90;;
8102;SDS011;4094;49.948;11.574;2023-04-12T05:15:38;10.40;;;9.67;;
8102;SDS011;4094;49.948;11.574;2023-04-12T05:18:10;10.43;;;9.73;;
8102;SDS011;4094;49.948;11.574;2023-04-12T05:20:39;10.80;;;10.00;;
8102;SDS011;4094;49.948;11.574;2023-04-12T05:23:09;10.60;;;9.90;;
8102;SDS011;4094;49.948;11.574;2023-04-12T05:25:42;10.93;;;10.13;;
8102;SDS011;4094;49.948;11.574;2023-04-12T05:28:14;10.73;;;9.93;;
8102;SDS011;4094;49.948;11.574;2023-04-12T05:30:44;10.60;;;9.87;;
8102;SDS011;4094;49.948;11.574;2023-04-12T05:33:20;10.73;;;10.03;;
8102;SDS011;4094;49.948;11.574;2023-04-12T05:35:49;10.80;;;10.10;;
8102;SDS011;4094;49.948;11.574;2023-04-12T05:38:18;10.67;;;9.87;;
8102;SDS011;4094;49.948;11.574;2023-04-12T05:40:52;10.97;;;10.27;;
8102;SDS011;4094;49.948;11.574;2023-04-12T05:43:23;10.47;;;9.77;;
8102;SDS011;4094;49.948;11.574;2023-04-12T05:45:52;10.93;;;10.17;;
8102;SDS011;4094;49.948;11.574;2023-04-12T05:48:24;10.00;;;9.27;;
8102;SDS011;4094;49.948;11.574;2023-04-12T05:50:56;11.00;;;10.30;;
8102;SDS011;4094;49.948;11.574;2023-04-12T05:53:25;11.23;;;10.33;;
8102;SDS011;4094;49.948;11.574;2023-04-12T05:55:58;11.37;;;10.40;;
8102;SDS011;4094;49.948;11.574;2023-04-12T05:58:28;10.50;;;9.80;;
8102;SDS011;4094;49.948;11.574;2023-04-12T06:00:58;10.90;;;10.20;;
8102;SDS011;4094;49.948;11.574;2023-04-12T06:03:28;10.73;;;10.03;;
8102;SDS011;4094;49.948;11.574;2023-04-12T06:06:08;10.40;;;9.70;;
8102;SDS011;4094;49.948;11.574;2023-04-12T06:08:37;10.93;;;10.23;;
8102;SDS011;4094;49.948;11.574;2023-04-12T06:11:07;10.17;;;9.47;;
8102;SDS011;4094;49.948;11.574;2023-04-12T06:13:39;10.70;;;9.90;;
8102;SDS011;4094;49.948;11.574;2023-04-12T06:16:08;10.63;;;9.83;;
8102;SDS011;4094;49.948;11.574;2023-04-12T06:18:39;10.60;;;10.00;;
8102;SDS011;4094;49.948;11.574;2023-04-12T06:21:08;10.50;;;9.83;;
8102;SDS011;4094;49.948;11.574;2023-04-12T06:23:38;11.07;;;10.20;;
8102;SDS011;4094;49.948;11.574;2023-04-12T06:26:08;10.53;;;9.63;;
8102;SDS011;4094;49.948;11.574;2023-04-12T06:28:38;10.67;;;9.97;;
8102;SDS011;4094;49.948;11.574;2023-04-12T06:31:08;10.13;;;9.53;;
8102;SDS011;4094;49.948;11.574;2023-04-12T06:33:41;9.90;;;9.27;;
8102;SDS011;4094;49.948;11.574;2023-04-12T06:36:11;10.07;;;9.37;;
8102;SDS011;4094;49.948;11.574;2023-04-12T06:38:42;10.23;;;9.53;;
8102;SDS011;4094;49.948;11.574;2023-04-12T06:41:11;9.57;;;8.97;;
8102;SDS011;4094;49.948;11.574;2023-04-12T06:43:40;10.83;;;10.03;;
8102;SDS011;4094;49.948;11.574;2023-04-12T06:46:09;10.27;;;9.57;;
8102;SDS011;4094;49.948;11.574;2023-04-12T06:48:43;10.53;;;9.93;;
8102;SDS011;4094;49.948;11.574;2023-04-12T06:51:12;10.83;;;9.83;;
8102;SDS011;4094;49.948;11.574;2023-04-12T06:53:42;10.97;;;10.00;;
8102;SDS011;4094;49.948;11.574;2023-04-12T06:56:11;10.73;;;9.93;;
8102;SDS011;4094;49.948;11.574;2023-04-12T06:58:44;10.33;;;9.73;;
8102;SDS011;4094;49.948;11.574;2023-04-12T07:01:13;10.23;;;9.53;;
8102;SDS011;4094;49.948;11.574;2023-04-12T07:03:44;9.57;;;8.80;;
8102;SDS011;4094;49.948;11.574;2023-04-12T07:06:13;9.63;;;8.93;;
8102;SDS011;4094;49.948;11.574;2023-04-12T07:08:52;10.50;;;9.70;;
8102;SDS011;4094;49.948;11.574;2023-04-12T07:11:22;10.23;;;9.53;;
8102;SDS011;4094;49.948;11.574;2023-04-12T07:13:51;10.33;;;9.57;;
8102;SDS011;4094;49.948;11.574;2023-04-12T07:16:21;10.60;;;9.90;;
8102;SDS011;4094;49.948;11.574;2023-04-12T07:18:51;10.30;;;9.60;;
8102;SDS011;4094;49.948;11.574;2023-04-12T07:21:21;10.17;;;9.47;;
8102;SDS011;4094;49.948;11.574;2023-04-12T07:23:50;9.97;;;9.37;;
8102;SDS011;4094;49.948;11.574;2023-04-12T07:26:19;10.47;;;9.70;;
8102;SDS011;4094;49.948;11.574;2023-04-12T07:28:48;10.23;;;9.60;;
8102;SDS011;4094;49.948;11.574;2023-04-12T07:31:17;10.60;;;9.77;;
8102;SDS011;4094;49.948;11.574;2023-04-12T07:33:47;10.93;;;10.20;;
8102;SDS011;4094;49.948;11.574;2023-04-12T07:36:18;10.70;;;10.00;;
8102;SDS011;4094;49.948;11.574;2023-04-12T07:38:48;10.67;;;9.97;;
8102;SDS011;4094;49.948;11.574;2023-04-12T07:41:22;9.83;;;9.23;;
8102;SDS011;4094;49.948;11.574;2023-04-12T07:43:51;10.90;;;9.97;;
8102;SDS011;4094;49.948;11.574;2023-04-12T07:46:20;10.67;;;9.97;;
8102;SDS011;4094;49.948;11.574;2023-04-12T07:48:50;10.20;;;9.47;;
8102;SDS011;4094;49.948;11.574;2023-04-12T07:51:20;10.33;;;9.60;;
8102;SDS011;4094;49.948;11.574;2023-04-12T07:53:50;10.20;;;9.57;;
8102;SDS011;4094;49.948;11.574;2023-04-12T07:56:19;9.90;;;9.10;;
8102;SDS011;4094;49.948;11.574;2023-04-12T07:58:48;10.37;;;9.67;;
8102;SDS011;4094;49.948;11.574;2023-04-12T08:01:17;10.40;;;9.70;;
8102;SDS011;4094;49.948;11.574;2023-04-12T08:03:46;10.67;;;9.93;;
8102;SDS011;4094;49.948;11.574;2023-04-12T08:06:16;10.13;;;9.43;;
8102;SDS011;4094;49.948;11.574;2023-04-12T08:08:47;10.63;;;9.73;;
8102;SDS011;4094;49.948;11.574;2023-04-12T08:11:16;10.43;;;9.63;;
8102;SDS011;4094;49.948;11.574;2023-04-12T08:13:46;9.97;;;9.20;;
8102;SDS011;4094;49.948;11.574;2023-04-12T08:16:15;9.67;;;9.07;;
8102;SDS011;4094;49.948;11.574;2023-04-12T08:18:45;10.23;;;9.63;;
8102;SDS011;4094;49.948;11.574;2023-04-12T08:21:15;10.50;;;9.60;;
8102;SDS011;4094;49.948;11.574;2023-04-12T08:23:44;9.87;;;9.03;;
8102;SDS011;4094;49.948;11.574;2023-04-12T08:26:17;9.37;;;8.70;;
8102;SDS011;4094;49.948;11.574;2023-04-12T08:28:46;9.70;;;8.80;;
8102;SDS011;4094;49.948;11.574;2023-04-12T08:31:15;9.30;;;8.60;;
8102;SDS011;4094;49.948;11.574;2023-04-12T08:33:45;10.10;;;9.10;;
8102;SDS011;4094;49.948;11.574;2023-04-12T08:36:14;9.37;;;8.77;;
8102;SDS011;4094;49.948;11.574;2023-04-12T08:38:44;9.30;;;8.50;;
8102;SDS011;4094;49.948;11.574;2023-04-12T08:41:14;9.30;;;8.50;;
8102;SDS011;4094;49.948;11.574;2023-04-12T08:43:44;9.00;;;8.37;;
8102;SDS011;4094;49.948;11.574;2023-04-12T08:46:14;9.00;;;8.27;;
8102;SDS011;4094;49.948;11.574;2023-04-12T08:48:44;9.13;;;8.50;;
8102;SDS011;4094;49.948;11.574;2023-04-12T08:51:16;9.33;;;8.57;;
8102;SDS011;4094;49.948;11.574;2023-04-12T08:53:47;8.90;;;8.30;;
8102;SDS011;4094;49.948;11.574;2023-04-12T08:56:19;9.33;;;8.53;;
8102;SDS011;4094;49.948;11.574;2023-04-12T08:58:49;9.07;;;8.57;;
8102;SDS011;4094;49.948;11.574;2023-04-12T09:01:20;8.10;;;7.63;;
8102;SDS011;4094;49.948;11.574;2023-04-12T09:03:49;8.87;;;8.37;;
8102;SDS011;4094;49.948;11.574;2023-04-12T09:06:19;8.63;;;8.13;;
8102;SDS011;4094;49.948;11.574;2023-04-12T09:08:51;7.90;;;7.30;;
8102;SDS011;4094;49.948;11.574;2023-04-12T09:11:23;8.47;;;7.97;;
8102;SDS011;4094;49.948;11.574;2023-04-12T09:13:53;8.93;;;8.30;;
8102;SDS011;4094;49.948;11.574;2023-04-12T09:16:34;8.53;;;8.03;;
8102;SDS011;4094;49.948;11.574;2023-04-12T09:19:04;8.90;;;8.40;;
8102;SDS011;4094;49.948;11.574;2023-04-12T09:21:34;8.73;;;8.20;;
8102;SDS011;4094;49.948;11.574;2023-04-12T09:24:04;8.77;;;8.27;;
8102;SDS011;4094;49.948;11.574;2023-04-12T09:26:42;8.27;;;7.87;;
8102;SDS011;4094;49.948;11.574;2023-04-12T09:29:20;9.20;;;8.60;;
8102;SDS011;4094;49.948;11.574;2023-04-12T09:31:56;8.97;;;8.47;;
8102;SDS011;4094;49.948;11.574;2023-04-12T09:34:29;8.13;;;7.63;;
8102;SDS011;4094;49.948;11.574;2023-04-12T09:36:59;8.10;;;7.60;;
8102;SDS011;4094;49.948;11.574;2023-04-12T09:39:41;8.73;;;8.23;;
8102;SDS011;4094;49.948;11.574;2023-04-12T09:42:12;8.67;;;8.07;;
8102;SDS011;4094;49.948;11.574;2023-04-12T09:45:18;8.40;;;7.90;;
8102;SDS011;4094;49.948;11.574;2023-04-12T09:47:48;8.93;;;8.43;;
8102;SDS011;4094;49.948;11.574;2023-04-12T09:50:18;8.43;;;7.93;;
8102;SDS011;4094;49.948;11.574;2023-04-12T09:52:48;8.47;;;7.97;;
8102;SDS011;4094;49.948;11.574;2023-04-12T09:55:17;8.40;;;7.90;;
8102;SDS011;4094;49.948;11.574;2023-04-12T09:57:51;9.00;;;8.40;;
8102;SDS011;4094;49.948;11.574;2023-04-12T10:00:22;9.17;;;8.33;;
8102;SDS011;4094;49.948;11.574;2023-04-12T10:02:54;8.77;;;8.27;;
8102;SDS011;4094;49.948;11.574;2023-04-12T10:05:24;8.83;;;8.33;;
8102;SDS011;4094;49.948;11.574;2023-04-12T10:07:56;8.83;;;8.23;;
8102;SDS011;4094;49.948;11.574;2023-04-12T10:10:28;8.40;;;7.80;;
8102;SDS011;4094;49.948;11.574;2023-04-12T10:13:00;8.53;;;8.07;;
8102;SDS011;4094;49.948;11.574;2023-04-12T10:15:29;8.53;;;8.10;;
8102;SDS011;4094;49.948;11.574;2023-04-12T10:18:05;8.83;;;8.13;;
8102;SDS011;4094;49.948;11.574;2023-04-12T10:20:35;8.20;;;7.80;;
8102;SDS011;4094;49.948;11.574;2023-04-12T10:23:08;8.50;;;8.00;;
8102;SDS011;4094;49.948;11.574;2023-04-12T10:25:38;8.53;;;8.03;;
8102;SDS011;4094;49.948;11.574;2023-04-12T10:28:13;8.70;;;8.20;;
8102;SDS011;4094;49.948;11.574;2023-04-12T10:30:45;8.43;;;7.83;;
8102;SDS011;4094;49.948;11.574;2023-04-12T10:33:16;8.37;;;7.87;;
8102;SDS011;4094;49.948;11.574;2023-04-12T10:38:44;8.37;;;7.87;;
8102;SDS011;4094;49.948;11.574;2023-04-12T10:41:16;7.97;;;7.47;;
8102;SDS011;4094;49.948;11.574;2023-04-12T10:43:48;8.70;;;8.20;;
8102;SDS011;4094;49.948;11.574;2023-04-12T10:46:45;8.53;;;8.03;;
8102;SDS011;4094;49.948;11.574;2023-04-12T10:49:15;8.90;;;8.30;;
8102;SDS011;4094;49.948;11.574;2023-04-12T10:54:42;8.30;;;7.90;;
8102;SDS011;4094;49.948;11.574;2023-04-12T11:00:19;7.70;;;7.20;;
8102;SDS011;4094;49.948;11.574;2023-04-12T11:03:04;8.23;;;7.63;;
8102;SDS011;4094;49.948;11.574;2023-04-12T11:08:53;8.20;;;7.70;;
8102;SDS011;4094;49.948;11.574;2023-04-12T11:11:26;8.00;;;7.60;;
8102;SDS011;4094;49.948;11.574;2023-04-12T11:13:56;8.37;;;7.83;;
8102;SDS011;4094;49.948;11.574;2023-04-12T11:16:27;8.03;;;7.57;;
8102;SDS011;4094;49.948;11.574;2023-04-12T11:18:56;7.77;;;7.37;;
8102;SDS011;4094;49.948;11.574;2023-04-12T11:21:26;8.10;;;7.60;;
8102;SDS011;4094;49.948;11.574;2023-04-12T11:23:56;8.37;;;7.90;;
8102;SDS011;4094;49.948;11.574;2023-04-12T11:26:28;8.17;;;7.67;;
8102;SDS011;4094;49.948;11.574;2023-04-12T11:29:05;7.53;;;7.07;;
8102;SDS011;4094;49.948;11.574;2023-04-12T11:31:38;7.60;;;7.10;;
8102;SDS011;4094;49.948;11.574;2023-04-12T11:34:07;7.67;;;7.20;;
8102;SDS011;4094;49.948;11.574;2023-04-12T11:36:37;7.40;;;7.00;;
8102;SDS011;4094;49.948;11.574;2023-04-12T11:39:06;7.27;;;6.87;;
8102;SDS011;4094;49.948;11.574;2023-04-12T11:41:36;7.63;;;7.23;;
8102;SDS011;4094;49.948;11.574;2023-04-12T11:44:06;7.47;;;7.07;;
8102;SDS011;4094;49.948;11.574;2023-04-12T11:46:38;7.90;;;7.23;;
8102;SDS011;4094;49.948;11.574;2023-04-12T11:49:08;6.80;;;6.40;;
8102;SDS011;4094;49.948;11.574;2023-04-12T11:51:37;7.03;;;6.67;;
8102;SDS011;4094;49.948;11.574;2023-04-12T11:54:06;7.90;;;7.50;;
8102;SDS011;4094;49.948;11.574;2023-04-12T11:56:36;7.03;;;6.63;;
8102;SDS011;4094;49.948;11.574;2023-04-12T11:59:06;7.53;;;7.13;;
8102;SDS011;4094;49.948;11.574;2023-04-12T12:01:36;7.43;;;7.10;;
8102;SDS011;4094;49.948;11.574;2023-04-12T12:04:06;7.70;;;7.40;;
8102;SDS011;4094;49.948;11.574;2023-04-12T12:06:36;7.80;;;7.40;;
8102;SDS011;4094;49.948;11.574;2023-04-12T12:09:06;8.17;;;7.67;;
8102;SDS011;4094;49.948;11.574;2023-04-12T12:11:35;8.00;;;7.60;;
8102;SDS011;4094;49.948;11.574;2023-04-12T12:14:05;8.07;;;7.67;;
8102;SDS011;4094;49.948;11.574;2023-04-12T12:16:34;8.07;;;7.57;;
8102;SDS011;4094;49.948;11.574;2023-04-12T12:19:09;8.43;;;7.93;;
8102;SDS011;4094;49.948;11.574;2023-04-12T12:21:38;8.10;;;7.60;;
8102;SDS011;4094;49.948;11.574;2023-04-12T12:24:08;8.30;;;7.90;;
8102;SDS011;4094;49.948;11.574;2023-04-12T12:26:40;7.63;;;7.13;;
8102;SDS011;4094;49.948;11.574;2023-04-12T12:29:15;8.30;;;7.90;;
8102;SDS011;4094;49.948;11.574;2023-04-12T12:31:46;9.00;;;8.40;;
8102;SDS011;4094;49.948;11.574;2023-04-12T12:34:17;8.17;;;7.77;;
8102;SDS011;4094;49.948;11.574;2023-04-12T12:36:53;8.33;;;7.93;;
8102;SDS011;4094;49.948;11.574;2023-04-12T12:39:23;8.20;;;7.70;;
8102;SDS011;4094;49.948;11.574;2023-04-12T12:41:52;8.13;;;7.73;;
8102;SDS011;4094;49.948;11.574;2023-04-12T12:44:22;7.83;;;7.43;;
8102;SDS011;4094;49.948;11.574;2023-04-12T12:46:52;8.30;;;7.80;;
8102;SDS011;4094;49.948;11.574;2023-04-12T12:49:37;7.87;;;7.47;;
8102;SDS011;4094;49.948;11.574;2023-04-12T12:52:07;7.90;;;7.50;;
8102;SDS011;4094;49.948;11.574;2023-04-12T12:54:36;8.10;;;7.70;;
8102;SDS011;4094;49.948;11.574;2023-04-12T12:57:08;7.63;;;7.23;;
8102;SDS011;4094;49.948;11.574;2023-04-12T12:59:37;7.90;;;7.40;;
8102;SDS011;4094;49.948;11.574;2023-04-12T13:02:07;8.10;;;7.70;;
8102;SDS011;4094;49.948;11.574;2023-04-12T13:04:37;8.17;;;7.77;;
8102;SDS011;4094;49.948;11.574;2023-04-12T13:07:07;8.43;;;8.00;;
8102;SDS011;4094;49.948;11.574;2023-04-12T13:09:36;8.83;;;8.23;;
8102;SDS011;4094;49.948;11.574;2023-04-12T13:12:05;7.60;;;7.10;;
8102;SDS011;4094;49.948;11.574;2023-04-12T13:14:34;8.20;;;7.80;;
8102;SDS011;4094;49.948;11.574;2023-04-12T13:17:04;8.63;;;8.03;;
8102;SDS011;4094;49.948;11.574;2023-04-12T13:19:33;8.27;;;7.77;;
8102;SDS011;4094;49.948;11.574;2023-04-12T13:22:04;8.10;;;7.67;;
8102;SDS011;4094;49.948;11.574;2023-04-12T13:24:33;7.70;;;7.30;;
8102;SDS011;4094;49.948;11.574;2023-04-12T13:27:03;8.43;;;7.93;;
8102;SDS011;4094;49.948;11.574;2023-04-12T13:29:32;8.00;;;7.60;;
8102;SDS011;4094;49.948;11.574;2023-04-12T13:32:02;7.80;;;7.40;;
8102;SDS011;4094;49.948;11.574;2023-04-12T13:34:31;7.83;;;7.43;;
8102;SDS011;4094;49.948;11.574;2023-04-12T13:37:01;7.63;;;7.23;;
8102;SDS011;4094;49.948;11.574;2023-04-12T13:39:31;7.63;;;7.23;;
8102;SDS011;4094;49.948;11.574;2023-04-12T13:42:01;8.00;;;7.50;;
8102;SDS011;4094;49.948;11.574;2023-04-12T13:44:31;8.07;;;7.67;;
8102;SDS011;4094;49.948;11.574;2023-04-12T13:47:00;7.57;;;7.17;;
8102;SDS011;4094;49.948;11.574;2023-04-12T13:49:29;8.00;;;7.57;;
8102;SDS011;4094;49.948;11.574;2023-04-12T13:51:59;7.73;;;7.27;;
8102;SDS011;4094;49.948;11.574;2023-04-12T13:54:29;7.63;;;7.20;;
8102;SDS011;4094;49.948;11.574;2023-04-12T13:56:59;7.87;;;7.47;;
8102;SDS011;4094;49.948;11.574;2023-04-12T13:59:31;7.67;;;7.27;;
8102;SDS011;4094;49.948;11.574;2023-04-12T14:02:01;7.83;;;7.23;;
8102;SDS011;4094;49.948;11.574;2023-04-12T14:04:30;8.17;;;7.67;;
8102;SDS011;4094;49.948;11.574;2023-04-12T14:07:00;7.90;;;7.47;;
8102;SDS011;4094;49.948;11.574;2023-04-12T14:09:30;8.43;;;7.83;;
8102;SDS011;4094;49.948;11.574;2023-04-12T14:12:01;7.97;;;7.57;;
8102;SDS011;4094;49.948;11.574;2023-04-12T14:14:31;7.80;;;7.20;;
8102;SDS011;4094;49.948;11.574;2023-04-12T14:17:00;7.70;;;7.30;;
8102;SDS011;4094;49.948;11.574;2023-04-12T14:19:29;7.80;;;7.40;;
8102;SDS011;4094;49.948;11.574;2023-04-12T14:21:58;7.97;;;7.47;;
8102;SDS011;4094;49.948;11.574;2023-04-12T14:24:29;8.20;;;7.80;;
8102;SDS011;4094;49.948;11.574;2023-04-12T14:26:58;7.53;;;7.03;;
8102;SDS011;4094;49.948;11.574;2023-04-12T14:29:30;7.77;;;7.27;;
8102;SDS011;4094;49.948;11.574;2023-04-12T14:31:59;8.60;;;8.10;;
8102;SDS011;4094;49.948;11.574;2023-04-12T14:34:28;7.90;;;7.50;;
8102;SDS011;4094;49.948;11.574;2023-04-12T14:36:57;7.57;;;7.17;;
8102;SDS011;4094;49.948;11.574;2023-04-12T14:39:27;7.50;;;7.10;;
8102;SDS011;4094;49.948;11.574;2023-04-12T14:41:57;8.53;;;7.93;;
8102;SDS011;4094;49.948;11.574;2023-04-12T14:44:26;8.17;;;7.67;;
8102;SDS011;4094;49.948;11.574;2023-04-12T14:46:56;8.20;;;7.80;;
8102;SDS011;4094;49.948;11.574;2023-04-12T14:49:26;7.93;;;7.43;;
8102;SDS011;4094;49.948;11.574;2023-04-12T14:51:59;7.83;;;7.37;;
8102;SDS011;4094;49.948;11.574;2023-04-12T14:54:29;8.10;;;7.53;;
8102;SDS011;4094;49.948;11.574;2023-04-12T14:56:58;7.40;;;7.00;;
8102;SDS011;4094;49.948;11.574;2023-04-12T14:59:27;7.57;;;7.17;;
8102;SDS011;4094;49.948;11.574;2023-04-12T15:01:57;7.73;;;7.33;;
8102;SDS011;4094;49.948;11.574;2023-04-12T15:04:27;8.00;;;7.60;;
8102;SDS011;4094;49.948;11.574;2023-04-12T15:06:56;8.20;;;7.70;;
8102;SDS011;4094;49.948;11.574;2023-04-12T15:09:25;7.97;;;7.47;;
8102;SDS011;4094;49.948;11.574;2023-04-12T15:11:55;7.70;;;7.30;;
8102;SDS011;4094;49.948;11.574;2023-04-12T15:14:27;8.13;;;7.53;;
8102;SDS011;4094;49.948;11.574;2023-04-12T15:16:58;7.47;;;7.07;;
8102;SDS011;4094;49.948;11.574;2023-04-12T15:19:29;7.57;;;7.17;;
8102;SDS011;4094;49.948;11.574;2023-04-12T15:21:59;7.77;;;7.20;;
8102;SDS011;4094;49.948;11.574;2023-04-12T15:24:28;8.20;;;7.80;;
8102;SDS011;4094;49.948;11.574;2023-04-12T15:26:58;8.17;;;7.67;;
8102;SDS011;4094;49.948;11.574;2023-04-12T15:29:29;8.07;;;7.57;;
8102;SDS011;4094;49.948;11.574;2023-04-12T15:32:00;7.97;;;7.50;;
8102;SDS011;4094;49.948;11.574;2023-04-12T15:34:29;7.93;;;7.53;;